Weather observations for the past three days for
Imperial, Imperial County Airport
| Date | Time (pdt) | Wind (mph) | Vis. (mi.) | Weather | Sky Cond. | Temperature (ºF) | Relative Humidity | Wind Chill (°F) | Heat Index (°F) | Pressure | Precipitation (in) | ||||||
|---|---|---|---|---|---|---|---|---|---|---|---|---|---|---|---|---|---|
| Air | Dwpt | 6 hour | altimeter (in) | sea level (mb) | 1 hr | 3 hr | 6 hr | ||||||||||
| Max. | Min. | ||||||||||||||||
| 08 | 23:53 | W 10 | 10.00 | Fair | CLR | 78.1 | 36 | 22% | 78 | 29.76 | 1007.7 | ||||||
| 08 | 22:53 | W 12 | 10.00 | Fair | CLR | 82.9 | 35.1 | 104 | 82 | 18% | 80 | 29.76 | 1007.8 | ||||
| 08 | 21:53 | W 14 | 10.00 | Fair | CLR | 82.9 | 28.9 | 14% | 80 | 29.75 | 1007.3 | ||||||
| 08 | 20:53 | W 15 | 10.00 | Fair | CLR | 87.1 | 30.9 | 13% | 83 | 29.73 | 1006.7 | ||||||
| 08 | 19:53 | W 13 | 10.00 | Fair | CLR | 91.9 | 30.9 | 11% | 88 | 29.71 | 1006.1 | ||||||
| 08 | 18:53 | W 14 | 10.00 | Fair | CLR | 98.1 | 30 | 9% | 93 | 29.69 | 1005.6 | ||||||
| 08 | 17:53 | SW 6 | 10.00 | Fair | CLR | 102.9 | 34 | 9% | 97 | 29.68 | 1005.2 | ||||||
| 08 | 16:53 | SW 7 | 10.00 | Fair | CLR | 104 | 35.1 | 105.1 | 91.9 | 9% | 98 | 29.69 | 1005.5 | ||||
| 08 | 15:53 | SW 7 | 10.00 | Fair | CLR | 102.9 | 35.1 | 9% | 97 | 29.71 | 1006.0 | ||||||
| 08 | 14:53 | Vrbl 3 | 10.00 | Fair | CLR | 102.9 | 37 | 10% | 98 | 29.74 | 1007.0 | ||||||
| 08 | 13:53 | E 6 | 10.00 | Fair | CLR | 102 | 39 | 11% | 97 | 29.76 | 1007.8 | ||||||
| 08 | 12:53 | E 8 | 10.00 | Fair | CLR | 100 | 39.9 | 13% | 95 | 29.78 | 1008.7 | ||||||
| 08 | 11:53 | Calm | 10.00 | Fair | CLR | 97 | 42.1 | 15% | 93 | 29.81 | 1009.4 | ||||||
| 08 | 10:53 | SE 7 | 10.00 | Fair | CLR | 91.9 | 46.9 | 91.9 | 69.1 | 21% | 88 | 29.83 | 1010.2 | ||||
| 08 | 09:53 | SE 5 | 10.00 | Fair | CLR | 87.1 | 46.9 | 25% | 84 | 29.84 | 1010.5 | ||||||
| 08 | 08:53 | Calm | 10.00 | Fair | CLR | 82.9 | 46.9 | 28% | 81 | 29.84 | 1010.4 | ||||||
| 08 | 07:53 | SE 6 | 10.00 | Fair | CLR | 79 | 44.1 | 29% | 79 | 29.83 | 1010.3 | ||||||
| 08 | 06:53 | Calm | 10.00 | Fair | CLR | 73.9 | 42.1 | 32% | 29.82 | 1009.8 | |||||||
| 08 | 05:53 | Calm | 10.00 | Fair | CLR | 72 | 39.9 | 31% | 29.79 | 1008.9 | |||||||
| 08 | 04:53 | W 3 | 10.00 | Fair | CLR | 72 | 41 | 82 | 71.1 | 33% | 29.78 | 1008.5 | |||||
| 08 | 03:53 | W 8 | 10.00 | Fair | CLR | 73 | 39.9 | 30% | 29.78 | 1008.5 | |||||||
| 08 | 02:53 | W 6 | 10.00 | Fair | CLR | 73 | 41 | 32% | 29.79 | 1008.8 | |||||||
| 08 | 01:53 | NW 3 | 10.00 | Fair | CLR | 75.9 | 41 | 29% | 77 | 29.79 | 1008.7 | ||||||
| 08 | 00:53 | W 9 | 10.00 | Fair | CLR | 78.1 | 41 | 27% | 78 | 29.79 | 1008.9 | ||||||
| 07 | 23:53 | W 12 | 10.00 | Fair | CLR | 80.1 | 41 | 25% | 79 | 29.79 | 1008.9 | ||||||
| 07 | 22:53 | SW 10 | 10.00 | Fair | CLR | 82 | 43 | 99 | 82 | 25% | 80 | 29.8 | 1009.0 | ||||
| 07 | 21:53 | W 13 | 10.00 | Fair | CLR | 82.9 | 46 | 27% | 81 | 29.79 | 1008.9 | ||||||
| 07 | 20:53 | W 10 | 10.00 | Fair | CLR | 84.9 | 41 | 21% | 82 | 29.78 | 1008.5 | ||||||
| 07 | 19:53 | S 5 | 10.00 | Fair | CLR | 91.9 | 33.1 | 12% | 88 | 29.75 | 1007.5 | ||||||
| 07 | 18:53 | S 6 | 10.00 | Fair | CLR | 96.1 | 30.9 | 10% | 91 | 29.74 | 1007.2 | ||||||
| 07 | 17:53 | S 8 | 10.00 | Fair | CLR | 98.1 | 32 | 10% | 93 | 29.74 | 1007.2 | ||||||
| 07 | 16:53 | W 7 | 10.00 | Fair | CLR | 98.1 | 33.1 | 99 | 86 | 10% | 93 | 29.75 | 1007.4 | ||||
| 07 | 15:53 | SW 7 | 10.00 | Fair | CLR | 97 | 37 | 12% | 92 | 29.76 | 1007.9 | ||||||
| 07 | 14:53 | Calm | 10.00 | Fair | CLR | 96.1 | 36 | 12% | 91 | 29.79 | 1008.9 | ||||||
| 07 | 13:53 | Vrbl 3 | 10.00 | Fair | CLR | 95 | 37.9 | 14% | 90 | 29.82 | 1009.9 | ||||||
| 07 | 12:53 | NW 7 | 10.00 | Fair | CLR | 93.9 | 39 | 15% | 90 | 29.85 | 1010.8 | ||||||
| 07 | 11:53 | W 3 | 10.00 | Fair | CLR | 91 | 45 | 20% | 87 | 29.87 | 1011.7 | ||||||
| 07 | 10:53 | Vrbl 3 | 10.00 | Fair | CLR | 86 | 46.9 | 86 | 61 | 26% | 83 | 29.89 | 1012.3 | ||||
| 07 | 09:53 | Calm | 10.00 | Fair | CLR | 81 | 50 | 34% | 80 | 29.9 | 1012.6 | ||||||
| 07 | 08:53 | N 5 | 10.00 | Fair | CLR | 78.1 | 51.1 | 39% | 79 | 29.91 | 1012.9 | ||||||
| 07 | 07:53 | Calm | 10.00 | Fair | CLR | 73 | 48.9 | 43% | 29.9 | 1012.6 | |||||||
| 07 | 06:53 | NW 5 | 10.00 | Fair | CLR | 64.9 | 46 | 51% | 29.89 | 1012.3 | |||||||
| 07 | 05:53 | W 3 | 10.00 | Fair | CLR | 62.1 | 45 | 54% | 29.88 | 1011.8 | |||||||
| 07 | 04:53 | W 5 | 10.00 | Fair | CLR | 63 | 46 | 73.9 | 63 | 54% | 29.87 | 1011.6 | |||||
| 07 | 03:53 | W 6 | 10.00 | Fair | CLR | 64 | 48 | 56% | 29.88 | 1011.7 | |||||||
| 07 | 02:53 | W 8 | 10.00 | Fair | CLR | 66.9 | 48 | 51% | 29.88 | 1011.8 | |||||||
| 07 | 01:53 | W 9 | 10.00 | Fair | CLR | 68 | 44.1 | 42% | 29.88 | 1011.9 | |||||||
| 07 | 00:53 | W 9 | 10.00 | Fair | CLR | 69.1 | 45 | 42% | 29.89 | 1012.2 | |||||||
| 06 | 23:53 | W 5 | 10.00 | Fair | CLR | 71.1 | 41 | 34% | 29.9 | 1012.4 | |||||||
| 06 | 22:53 | S 6 | 10.00 | Fair | CLR | 73.9 | 39.9 | 86 | 71.1 | 29% | 29.9 | 1012.6 | |||||
| 06 | 21:53 | S 5 | 10.00 | Fair | CLR | 75.9 | 39.9 | 27% | 77 | 29.9 | 1012.5 | ||||||
| 06 | 20:53 | S 3 | 10.00 | Fair | CLR | 77 | 39 | 26% | 77 | 29.89 | 1012.1 | ||||||
| 06 | 19:53 | S 5 | 10.00 | Fair | CLR | 81 | 39 | 22% | 79 | 29.88 | 1011.7 | ||||||
| 06 | 18:53 | SW 3 | 10.00 | Fair | CLR | 84 | 39 | 20% | 81 | 29.87 | 1011.4 | ||||||
| 06 | 17:53 | W 3 | 10.00 | Fair | CLR | 84.9 | 39 | 20% | 82 | 29.87 | 1011.4 | ||||||
| 06 | 16:53 | NW 6 | 10.00 | Fair | CLR | 84.9 | 39 | 86 | 75.9 | 20% | 82 | 29.87 | 1011.5 | ||||
| 06 | 15:53 | Calm | 10.00 | Fair | CLR | 84 | 37.9 | 19% | 81 | 29.89 | 1012.1 | ||||||
| 06 | 14:53 | Vrbl 3 | 10.00 | Fair | CLR | 82.9 | 37.9 | 20% | 81 | 29.92 | 1013.0 | ||||||
| 06 | 13:53 | W 8 | 10.00 | Fair | CLR | 82.9 | 41 | 23% | 81 | 29.94 | 1013.8 | ||||||
| 06 | 12:53 | Calm | 10.00 | Fair | CLR | 80.1 | 41 | 25% | 79 | 29.96 | 1014.6 | ||||||
| 06 | 11:53 | W 6 | 10.00 | Fair | CLR | 78.1 | 42.1 | 28% | 78 | 29.98 | 1015.3 | ||||||
| 06 | 10:53 | N 6 | 10.00 | Fair | CLR | 75.9 | 42.1 | 75.9 | 54 | 30% | 77 | 30 | 1015.7 | ||||
| 06 | 09:53 | NW 7 | 10.00 | Fair | CLR | 72 | 41 | 33% | 29.99 | 1015.6 | |||||||
| 06 | 08:53 | NW 7 | 10.00 | Fair | CLR | 70 | 41 | 35% | 29.99 | 1015.4 | |||||||
| 06 | 07:53 | W 8 | 10.00 | Fair | CLR | 66 | 44.1 | 45% | 29.99 | 1015.3 | |||||||
| 06 | 06:53 | W 5 | 10.00 | Fair | CLR | 59 | 43 | 56% | 29.98 | 1015.0 | |||||||
| 06 | 05:53 | W 7 | 10.00 | Fair | CLR | 55.9 | 42.1 | 60% | 29.95 | 1014.3 | |||||||
| 06 | 04:53 | W 8 | 10.00 | Fair | CLR | 55.9 | 42.1 | 62.1 | 55.9 | 60% | 29.94 | 1013.8 | |||||
| 06 | 03:53 | W 10 | 10.00 | Fair | CLR | 57 | 42.1 | 58% | 29.93 | 1013.4 | |||||||
| 06 | 02:53 | W 12 | 10.00 | Fair | CLR | 60.1 | 41 | 50% | 29.93 | 1013.4 | |||||||
| 06 | 01:53 | W 13 | 10.00 | Fair | CLR | 61 | 42.1 | 50% | 29.93 | 1013.4 | |||||||
| 06 | 00:53 | W 12 | 10.00 | Fair | CLR | 62.1 | 41 | 46% | 29.94 | 1013.7 | |||||||
| Date | Time (pdt) | Wind (mph) | Vis. (mi.) | Weather | Sky Cond. | Air | Dwpt | Max. | Min. | Relative Humidity | Wind Chill (°F) | Heat Index (°F) | altimeter (in) | sea level (mb) | 1 hr | 3 hr | 6 hr |
| 6 hour | |||||||||||||||||
| Temperature (ºF) | Pressure | Precipitation (in) | |||||||||||||||